Healing, United Kingdom
Current Conditions -  °F | °C
As of 3:20 AM on Saturday 29 Nov 2014 (Local Time) from EGNJ Reporting Station
Haze Haze  
Wind Chill: 10°   Ceiling: 600
Heat Index: 10°   Visibility: 2mi
Dew Point:   Wind: 16mph
Humidity: 94%   Direction: 60°ENE
Pressure: 29.83"   Gusts: NA
Location:  53.58°N, 0.16°W
Report Text: EGNJ 290320Z AUTO 06014KT 050V110 3200 HZ OVC006/// 10/09 Q1010 REDZ
Loading
Personal Weather Stations






























Interactive Weather Map New forecast layout! Learn more

10-Day Weather Forecast

Advertisements
Track Severe Weather on mobile